createdAt,value
2018-09-15T05:49:56.020Z,0
2018-09-15T05:57:40.025Z,0
2018-09-15T05:59:09.968Z,47.6
2018-09-15T06:09:04.878Z,48.7
2018-09-15T06:11:31.773Z,1009.8
2018-09-15T06:21:30.294Z,1009.7
2018-09-15T06:31:24.350Z,1009.8
2018-09-15T06:38:13.062Z,1009.8
2018-09-15T06:48:12.361Z,1009.9
2018-09-15T06:58:12.913Z,1010.1
2018-09-15T07:08:13.300Z,1010.3
2018-09-15T07:18:13.527Z,1010.6
2018-09-15T07:28:13.946Z,1010.6
2018-09-15T07:38:14.184Z,1010.8
2018-09-15T07:48:14.751Z,1010.7
2018-09-15T07:58:14.879Z,1010.8
2018-09-15T08:08:14.745Z,1010.7
2018-09-15T08:18:15.263Z,1010.8
2018-09-15T08:28:15.720Z,1010.8
2018-09-15T08:41:25.718Z,1010.9
2018-09-15T08:51:25.627Z,1010.8
2018-09-15T09:01:25.885Z,1011.2
2018-09-15T09:11:26.363Z,1011
2018-09-15T09:14:56.849Z,1011.1
2018-09-15T09:25:14.864Z,1011
2018-09-15T09:45:21.372Z,1011.2
2018-09-15T09:51:41.094Z,1011.2
2018-09-15T09:52:00.472Z,1011
2018-09-15T10:01:51.139Z,1011
2018-09-15T10:11:51.068Z,1011
2018-09-15T10:21:51.558Z,1011.2
2018-09-15T10:31:51.906Z,1011.1
2018-09-15T10:41:52.246Z,1011.1
2018-09-15T10:51:52.639Z,1011.1
2018-09-15T11:01:55.341Z,1011.2
2018-09-15T11:04:11.671Z,1011.3
2018-09-15T11:09:40.592Z,1011.3
2018-09-15T11:19:37.113Z,1011.3
2018-09-15T11:29:40.888Z,1011.2
2018-09-15T11:39:41.138Z,1011.2
2018-09-15T11:49:40.998Z,1011.3
2018-09-15T11:59:41.266Z,1011.3
2018-09-15T12:09:41.243Z,1011.2
2018-09-15T12:19:41.734Z,1011.3
2018-09-15T12:29:42.243Z,1011.2
2018-09-15T12:39:42.651Z,1011.3
2018-09-15T12:49:45.472Z,1011.4
2018-09-15T12:59:46.118Z,1011.4
2018-09-15T13:09:49.366Z,1011.5
2018-09-15T13:19:49.598Z,1011.5
2018-09-15T13:29:49.863Z,1011.6
2018-09-15T13:39:49.685Z,1011.6
2018-09-15T13:49:50.646Z,1011.6
2018-09-15T13:59:51.211Z,1011.7
2018-09-15T14:09:51.760Z,1011.5
2018-09-15T14:19:51.915Z,1011.7
2018-09-15T14:39:54.634Z,1011.8
2018-09-15T14:49:55.754Z,1011.8
2018-09-15T15:00:01.707Z,1011.8
2018-09-15T15:10:01.827Z,1011.9
2018-09-15T15:20:04.514Z,1011.8
2018-09-15T15:30:10.962Z,1011.8
2018-09-15T15:40:11.819Z,1011.8
2018-09-15T15:50:11.841Z,1011.7
2018-09-15T16:00:12.030Z,1011.7
2018-09-15T16:10:12.205Z,1011.8
2018-09-15T16:20:12.448Z,1011.9
2018-09-15T16:30:12.614Z,1011.9
2018-09-15T16:40:12.789Z,1012
2018-09-15T16:50:13.030Z,1012
2018-09-15T17:00:13.176Z,1012
2018-09-15T17:10:13.804Z,1012
2018-09-15T17:20:14.062Z,1012.2
2018-09-15T17:30:14.881Z,1012.1
2018-09-15T17:40:15.363Z,1012.2
2018-09-15T17:50:15.585Z,1012.2
2018-09-15T18:00:17.942Z,1012.3
2018-09-15T18:10:18.094Z,1012.3
2018-09-15T18:20:18.428Z,1012.4
2018-09-15T18:40:21.606Z,1012.6
2018-09-15T18:50:21.944Z,1012.7
2018-09-15T19:00:22.479Z,1012.7
2018-09-15T19:10:22.676Z,1012.8
2018-09-15T19:20:23.025Z,1013
2018-09-15T19:30:23.660Z,1013
2018-09-15T19:40:23.587Z,1013.1
2018-09-15T19:50:23.911Z,1013.2
2018-09-15T20:00:24.286Z,1013.2
2018-09-15T20:10:24.777Z,1013.2
2018-09-15T20:20:24.911Z,1013.2
2018-09-15T20:30:25.785Z,1013.2
2018-09-15T21:00:31.737Z,1013.3
2018-09-15T21:10:32.230Z,1013.3
2018-09-15T21:20:32.419Z,1013.4
2018-09-15T21:30:32.472Z,1013.4
2018-09-15T21:40:32.632Z,1013.4
2018-09-15T21:50:32.955Z,1013.5
2018-09-15T22:00:32.884Z,1013.5
2018-09-15T22:10:33.358Z,1013.4
2018-09-15T22:20:33.676Z,1013.5
2018-09-15T22:40:37.284Z,1013.6
2018-09-15T23:10:43.227Z,1013.5
2018-09-15T23:20:43.647Z,1013.5
2018-09-15T23:30:43.787Z,1013.5
2018-09-15T23:40:43.789Z,1013.4
2018-09-15T23:50:44.144Z,1013.4
